createdAt,value
2022-10-16T00:00:59.300Z,95.70
2022-10-16T00:03:29.543Z,95.60
2022-10-16T00:06:01.789Z,95.70
2022-10-16T00:08:29.077Z,95.80
2022-10-16T00:11:08.366Z,95.70
2022-10-16T00:13:36.667Z,95.60
2022-10-16T00:16:04.479Z,95.50
2022-10-16T00:18:31.973Z,95.30
2022-10-16T00:21:09.079Z,95.10
2022-10-16T00:23:36.395Z,94.90
2022-10-16T00:26:07.468Z,94.80
2022-10-16T00:28:35.739Z,94.60
2022-10-16T00:31:11.977Z,94.40
2022-10-16T00:33:40.778Z,94.20
2022-10-16T00:36:11.210Z,94.20
2022-10-16T00:38:38.855Z,94.10
2022-10-16T00:41:07.657Z,94.10
2022-10-16T00:43:36.064Z,94.00
2022-10-16T00:46:05.203Z,94.00
2022-10-16T00:48:32.359Z,94.00
2022-10-16T00:51:00.317Z,94.00
2022-10-16T00:53:28.150Z,93.90
2022-10-16T00:55:55.088Z,93.90
2022-10-16T00:58:22.105Z,94.00
2022-10-16T01:00:48.918Z,94.00
2022-10-16T01:03:24.825Z,94.20
2022-10-16T01:06:18.092Z,94.40
2022-10-16T01:09:21.826Z,94.60
2022-10-16T01:12:08.706Z,95.00
2022-10-16T01:14:55.606Z,95.30
2022-10-16T01:18:04.668Z,95.70
2022-10-16T01:20:38.793Z,96.10
2022-10-16T01:23:08.819Z,96.20
2022-10-16T01:25:58.423Z,96.70
2022-10-16T01:28:34.134Z,97.00
2022-10-16T01:31:02.595Z,97.20
2022-10-16T01:33:44.803Z,97.40
2022-10-16T01:36:16.579Z,97.60
2022-10-16T01:38:45.817Z,97.80
2022-10-16T01:41:25.825Z,97.90
2022-10-16T01:44:21.689Z,97.90
2022-10-16T01:46:51.219Z,98.00
2022-10-16T01:49:20.194Z,98.10
2022-10-16T01:51:50.965Z,98.10
2022-10-16T01:54:21.094Z,98.00
2022-10-16T01:56:51.600Z,98.00
2022-10-16T01:59:22.142Z,98.10
2022-10-16T02:01:57.912Z,98.30
2022-10-16T02:04:38.533Z,98.50
2022-10-16T02:07:05.864Z,98.70
2022-10-16T02:09:35.589Z,99.00
2022-10-16T02:12:10.859Z,99.40
2022-10-16T02:14:39.932Z,99.70
2022-10-16T02:17:16.608Z,99.90
2022-10-16T02:19:44.930Z,99.90
2022-10-16T02:22:18.367Z,99.90
2022-10-16T02:25:03.453Z,99.90
2022-10-16T02:27:47.870Z,99.90
2022-10-16T02:30:28.349Z,99.90
2022-10-16T02:32:56.480Z,99.90
2022-10-16T02:35:24.697Z,99.90
2022-10-16T02:37:53.089Z,99.90
2022-10-16T02:40:24.356Z,99.90
2022-10-16T02:42:54.201Z,99.90
2022-10-16T02:45:23.203Z,99.90
2022-10-16T02:47:49.980Z,99.90
2022-10-16T02:50:16.793Z,99.90
2022-10-16T02:52:43.861Z,99.90
2022-10-16T02:55:10.587Z,99.90
2022-10-16T02:57:38.152Z,99.90
2022-10-16T03:00:06.692Z,99.90
2022-10-16T03:02:33.704Z,99.90
2022-10-16T03:05:00.472Z,99.90
2022-10-16T03:07:27.660Z,99.90
2022-10-16T03:09:55.546Z,99.90
2022-10-16T03:12:22.664Z,99.90
2022-10-16T03:14:49.427Z,99.90
2022-10-16T03:17:17.895Z,99.90
2022-10-16T03:19:45.156Z,99.90
2022-10-16T03:22:11.988Z,99.90
2022-10-16T03:24:38.742Z,99.90
2022-10-16T03:27:05.596Z,99.90
2022-10-16T03:29:33.180Z,99.90
2022-10-16T03:32:00.407Z,99.90
2022-10-16T03:34:27.404Z,99.90
2022-10-16T03:36:54.405Z,99.90
2022-10-16T03:39:21.252Z,99.90
2022-10-16T03:41:48.271Z,99.90
2022-10-16T03:44:15.333Z,99.90
2022-10-16T03:46:42.534Z,99.90
2022-10-16T03:49:09.879Z,99.90
2022-10-16T03:51:37.250Z,99.90
2022-10-16T03:54:04.033Z,99.90
2022-10-16T03:56:30.965Z,99.90
2022-10-16T03:58:57.788Z,99.90
2022-10-16T04:01:24.659Z,99.90
2022-10-16T04:03:51.414Z,99.90
2022-10-16T04:06:18.159Z,99.90
2022-10-16T04:08:45.486Z,99.90
2022-10-16T04:11:12.556Z,99.90
2022-10-16T04:13:39.293Z,99.90
2022-10-16T04:16:06.213Z,99.90
2022-10-16T04:18:32.959Z,99.90
2022-10-16T04:21:09.143Z,99.90
2022-10-16T04:23:36.132Z,99.90
2022-10-16T04:26:03.367Z,99.90
2022-10-16T04:28:30.331Z,99.90
2022-10-16T04:30:57.324Z,99.90
2022-10-16T04:33:24.354Z,99.90
2022-10-16T04:35:57.776Z,99.90
2022-10-16T04:38:24.825Z,99.90
2022-10-16T04:40:51.729Z,99.90
2022-10-16T04:43:18.865Z,99.90
2022-10-16T04:45:45.703Z,99.90
2022-10-16T04:48:12.602Z,99.90
2022-10-16T04:50:39.360Z,99.90
2022-10-16T04:53:07.446Z,99.90
2022-10-16T04:55:34.388Z,99.90
2022-10-16T04:58:01.173Z,99.90
2022-10-16T05:00:28.151Z,99.90
2022-10-16T05:02:55.018Z,99.90
2022-10-16T05:05:21.871Z,99.90
2022-10-16T05:07:50.545Z,99.90
2022-10-16T05:10:17.894Z,99.90
2022-10-16T05:12:44.872Z,99.90
2022-10-16T05:15:11.885Z,99.90
2022-10-16T05:17:42.476Z,99.90
2022-10-16T05:20:12.374Z,99.90
2022-10-16T05:22:39.340Z,99.90
2022-10-16T05:25:06.672Z,99.90
2022-10-16T05:27:33.427Z,99.90
2022-10-16T05:30:00.096Z,99.90
2022-10-16T05:32:26.897Z,99.90
2022-10-16T05:34:53.609Z,99.90
2022-10-16T05:37:20.524Z,99.90
2022-10-16T05:39:47.322Z,99.90
2022-10-16T05:42:14.158Z,99.90
2022-10-16T05:44:40.871Z,99.90
2022-10-16T05:47:07.782Z,99.90
2022-10-16T05:49:37.801Z,99.90
2022-10-16T05:52:07.576Z,99.90
2022-10-16T05:54:34.362Z,99.90
2022-10-16T05:57:01.096Z,99.90
2022-10-16T05:59:27.919Z,99.90
2022-10-16T06:01:54.620Z,99.90
2022-10-16T06:04:21.632Z,99.90
2022-10-16T06:06:48.393Z,99.90
2022-10-16T06:09:15.711Z,99.90
2022-10-16T06:11:42.727Z,99.90
2022-10-16T06:14:10.022Z,99.90
2022-10-16T06:16:37.981Z,99.90
2022-10-16T06:19:07.366Z,99.90
2022-10-16T06:21:34.520Z,99.90
2022-10-16T06:24:01.630Z,99.90
2022-10-16T06:26:31.307Z,99.90
2022-10-16T06:29:00.325Z,99.90
2022-10-16T06:31:31.270Z,99.90
2022-10-16T06:33:58.745Z,99.90
2022-10-16T06:36:26.531Z,99.90
2022-10-16T06:38:53.371Z,99.90
2022-10-16T06:41:22.431Z,99.90
2022-10-16T06:43:49.743Z,99.90
2022-10-16T06:46:19.237Z,99.90
2022-10-16T06:48:46.276Z,99.90
2022-10-16T06:51:18.939Z,99.90
2022-10-16T06:54:06.417Z,99.90
2022-10-16T06:56:34.418Z,99.90
2022-10-16T06:59:02.069Z,99.90
2022-10-16T07:01:29.650Z,99.90
2022-10-16T07:03:56.770Z,99.90
2022-10-16T07:06:25.605Z,99.90
2022-10-16T07:08:52.833Z,99.90
2022-10-16T07:11:22.338Z,99.90
2022-10-16T07:13:54.399Z,99.90
2022-10-16T07:16:26.494Z,99.90
2022-10-16T07:18:59.316Z,99.90
2022-10-16T07:21:29.945Z,99.90
2022-10-16T07:24:02.419Z,99.90
2022-10-16T07:26:31.374Z,99.80
2022-10-16T07:28:58.399Z,99.90
2022-10-16T07:31:25.939Z,99.90
2022-10-16T07:33:52.892Z,99.90
2022-10-16T07:36:21.043Z,99.90
2022-10-16T07:38:49.070Z,99.90
2022-10-16T07:41:19.138Z,99.90
2022-10-16T07:43:54.649Z,99.90
2022-10-16T07:46:23.479Z,99.90
2022-10-16T07:48:50.262Z,99.90
2022-10-16T07:51:19.442Z,99.90
2022-10-16T07:53:46.699Z,99.90
2022-10-16T07:56:13.854Z,99.90
2022-10-16T07:58:41.143Z,99.90
2022-10-16T08:01:16.015Z,99.90
2022-10-16T08:03:47.719Z,99.90
2022-10-16T08:06:14.505Z,99.90
2022-10-16T08:08:41.624Z,99.90
2022-10-16T08:11:08.944Z,99.90
2022-10-16T08:13:35.878Z,99.90
2022-10-16T08:16:04.669Z,99.90
2022-10-16T08:18:31.464Z,99.90
2022-10-16T08:20:59.870Z,99.90
2022-10-16T08:23:27.499Z,99.80
2022-10-16T08:26:03.344Z,99.50
2022-10-16T08:28:30.189Z,99.40
2022-10-16T08:30:57.919Z,99.00
2022-10-16T08:33:24.686Z,98.60
2022-10-16T08:35:55.244Z,98.20
2022-10-16T08:38:22.349Z,97.70
2022-10-16T08:40:52.729Z,97.80
2022-10-16T08:43:35.380Z,97.70
2022-10-16T08:46:17.179Z,97.60
2022-10-16T08:48:46.945Z,97.30
2022-10-16T08:51:22.052Z,97.20
2022-10-16T08:53:59.136Z,97.10
2022-10-16T08:56:26.932Z,96.50
2022-10-16T08:58:59.685Z,95.90
2022-10-16T09:01:51.774Z,95.40
2022-10-16T09:04:42.693Z,94.80
2022-10-16T09:07:39.780Z,94.80
2022-10-16T09:10:24.801Z,94.00
2022-10-16T09:13:01.993Z,93.70
2022-10-16T09:15:34.409Z,93.50
2022-10-16T09:18:20.082Z,92.30
2022-10-16T09:20:56.581Z,92.00
2022-10-16T09:23:31.635Z,92.40
2022-10-16T09:26:00.012Z,91.30
2022-10-16T09:28:27.360Z,91.00
2022-10-16T09:30:55.258Z,90.70
2022-10-16T09:33:29.308Z,90.50
2022-10-16T09:35:59.746Z,91.30
2022-10-16T09:38:26.586Z,92.70
2022-10-16T09:40:59.027Z,92.30
2022-10-16T09:43:49.631Z,91.80
2022-10-16T09:46:34.192Z,91.50
2022-10-16T09:49:06.515Z,89.90
2022-10-16T09:51:36.570Z,86.80
2022-10-16T09:54:09.401Z,82.00
2022-10-16T09:56:39.790Z,81.80
2022-10-16T09:59:18.333Z,79.00
2022-10-16T10:01:53.841Z,76.20
2022-10-16T10:04:23.025Z,74.40
2022-10-16T10:06:59.144Z,72.10
2022-10-16T10:09:27.480Z,71.30
2022-10-16T10:12:04.608Z,71.50
2022-10-16T10:14:48.243Z,69.20
2022-10-16T10:17:18.313Z,67.00
2022-10-16T10:20:22.184Z,67.50
2022-10-16T10:22:49.128Z,66.90
2022-10-16T10:25:39.043Z,66.70
2022-10-16T10:28:14.767Z,65.40
2022-10-16T10:31:08.145Z,66.10
2022-10-16T10:34:06.642Z,65.30
2022-10-16T10:36:33.346Z,63.50
2022-10-16T10:39:24.470Z,63.00
2022-10-16T10:41:57.433Z,62.70
2022-10-16T10:44:58.431Z,62.60
2022-10-16T10:48:11.890Z,61.50
2022-10-16T10:50:46.580Z,62.50
2022-10-16T10:53:26.330Z,61.60
2022-10-16T10:56:21.240Z,60.80
2022-10-16T10:58:59.956Z,60.30
2022-10-16T11:01:59.028Z,58.90
2022-10-16T11:04:57.834Z,58.10
2022-10-16T11:07:33.324Z,58.20
2022-10-16T11:10:06.407Z,57.80
2022-10-16T11:12:43.357Z,58.20
2022-10-16T11:15:18.543Z,60.10
2022-10-16T11:18:01.955Z,60.00
2022-10-16T11:20:36.219Z,57.00
2022-10-16T11:23:16.346Z,57.60
2022-10-16T11:25:45.579Z,57.50
2022-10-16T11:28:15.025Z,58.50
2022-10-16T11:30:53.333Z,58.10
2022-10-16T11:33:28.315Z,55.80
2022-10-16T11:36:33.951Z,56.80
2022-10-16T11:39:21.369Z,57.00
2022-10-16T11:42:14.504Z,56.30
2022-10-16T11:44:53.118Z,56.40
2022-10-16T11:47:59.284Z,56.90
2022-10-16T11:50:47.261Z,56.80
2022-10-16T11:53:25.152Z,57.20
2022-10-16T11:55:52.418Z,55.60
2022-10-16T11:58:33.520Z,55.90
2022-10-16T12:01:18.615Z,56.10
2022-10-16T12:03:52.573Z,55.70
2022-10-16T12:06:41.272Z,56.40
2022-10-16T12:09:31.437Z,55.50
2022-10-16T12:11:59.089Z,55.70
2022-10-16T12:15:14.706Z,55.50
2022-10-16T12:17:39.314Z,55.10
2022-10-16T12:20:17.755Z,54.80
2022-10-16T12:22:57.333Z,55.20
2022-10-16T12:25:24.209Z,55.60
2022-10-16T12:28:02.697Z,56.20
2022-10-16T12:30:35.180Z,55.90
2022-10-16T12:33:06.350Z,55.30
2022-10-16T12:35:36.661Z,55.20
2022-10-16T12:38:18.672Z,54.10
2022-10-16T12:40:49.171Z,54.10
2022-10-16T12:43:26.036Z,53.80
2022-10-16T12:46:11.247Z,53.80
2022-10-16T12:48:49.066Z,54.00
2022-10-16T12:51:31.089Z,53.90
2022-10-16T12:54:08.100Z,53.90
2022-10-16T12:59:20.324Z,53.90
2022-10-16T13:02:19.251Z,53.70
2022-10-16T13:05:04.219Z,53.20
2022-10-16T13:07:50.531Z,52.30
2022-10-16T13:10:36.984Z,52.20
2022-10-16T13:13:09.338Z,51.60
2022-10-16T13:16:00.571Z,51.20
2022-10-16T13:18:53.490Z,51.40
2022-10-16T13:21:39.856Z,52.20
2022-10-16T13:24:36.415Z,50.50
2022-10-16T13:27:28.119Z,50.30
2022-10-16T13:30:03.400Z,50.10
2022-10-16T13:32:30.308Z,49.50
2022-10-16T13:34:57.847Z,49.50
2022-10-16T13:37:26.207Z,48.90
2022-10-16T13:40:13.292Z,49.00
2022-10-16T13:42:40.116Z,49.00
2022-10-16T13:45:18.313Z,49.20
2022-10-16T13:47:45.167Z,48.30
2022-10-16T13:50:18.482Z,48.20
2022-10-16T13:52:46.033Z,48.50
2022-10-16T13:55:18.743Z,48.20
2022-10-16T13:57:45.740Z,48.20
2022-10-16T14:00:31.295Z,48.20
2022-10-16T14:03:15.245Z,47.70
2022-10-16T14:05:50.865Z,48.40
2022-10-16T14:08:17.913Z,47.90
2022-10-16T14:10:50.060Z,47.70
2022-10-16T14:13:25.507Z,47.60
2022-10-16T14:15:55.264Z,47.30
2022-10-16T14:18:25.410Z,47.80
2022-10-16T14:20:52.575Z,48.00
2022-10-16T14:23:24.282Z,48.10
2022-10-16T14:25:51.006Z,48.30
2022-10-16T14:28:23.385Z,48.30
2022-10-16T14:30:52.233Z,48.40
2022-10-16T14:33:34.679Z,48.40
2022-10-16T14:36:22.882Z,48.30
2022-10-16T14:39:06.109Z,48.70
2022-10-16T14:41:44.591Z,49.00
2022-10-16T14:44:12.844Z,49.10
2022-10-16T14:46:42.767Z,49.10
2022-10-16T14:49:12.879Z,49.10
2022-10-16T14:51:45.787Z,49.10
2022-10-16T14:54:14.549Z,49.30
2022-10-16T14:56:57.990Z,49.20
2022-10-16T14:59:40.672Z,49.20
2022-10-16T15:02:23.444Z,49.50
2022-10-16T15:04:50.616Z,49.70
2022-10-16T15:07:17.689Z,49.80
2022-10-16T15:09:48.241Z,49.80
2022-10-16T15:12:16.659Z,49.80
2022-10-16T15:14:43.500Z,49.90
2022-10-16T15:17:14.583Z,50.50
2022-10-16T15:19:43.436Z,50.50
2022-10-16T15:22:13.202Z,50.90
2022-10-16T15:24:40.560Z,51.30
2022-10-16T15:27:07.446Z,51.80
2022-10-16T15:29:34.248Z,52.30
2022-10-16T15:32:02.103Z,52.50
2022-10-16T15:34:28.908Z,52.70
2022-10-16T15:36:57.809Z,52.90
2022-10-16T15:39:24.660Z,53.30
2022-10-16T15:41:54.315Z,53.70
2022-10-16T15:44:24.060Z,54.10
2022-10-16T15:46:50.789Z,54.60
2022-10-16T15:49:17.501Z,54.90
2022-10-16T15:51:44.377Z,55.20
2022-10-16T15:54:11.329Z,55.40
2022-10-16T15:56:38.368Z,55.80
2022-10-16T15:59:05.805Z,56.10
2022-10-16T16:01:36.680Z,56.40
2022-10-16T16:04:11.195Z,57.00
2022-10-16T16:06:47.355Z,57.50
2022-10-16T16:09:15.514Z,57.90
2022-10-16T16:11:43.679Z,58.10
2022-10-16T16:14:14.731Z,58.40
2022-10-16T16:16:43.429Z,58.90
2022-10-16T16:19:11.836Z,59.60
2022-10-16T16:21:39.325Z,59.90
2022-10-16T16:24:09.218Z,60.50
2022-10-16T16:26:39.013Z,61.20
2022-10-16T16:29:05.990Z,61.90
2022-10-16T16:31:34.461Z,62.40
2022-10-16T16:34:01.357Z,63.20
2022-10-16T16:36:28.121Z,63.80
2022-10-16T16:38:54.867Z,64.50
2022-10-16T16:41:26.853Z,65.10
2022-10-16T16:43:54.751Z,66.10
2022-10-16T16:46:23.021Z,66.90
2022-10-16T16:48:54.446Z,67.80
2022-10-16T16:51:21.366Z,68.60
2022-10-16T16:53:50.654Z,69.40
2022-10-16T16:56:19.009Z,70.40
2022-10-16T16:58:50.656Z,71.20
2022-10-16T17:01:20.313Z,72.20
2022-10-16T17:03:50.845Z,73.00
2022-10-16T17:06:20.694Z,73.80
2022-10-16T17:08:48.099Z,74.40
2022-10-16T17:11:18.411Z,75.50
2022-10-16T17:13:46.024Z,75.40
2022-10-16T17:16:13.409Z,75.70
2022-10-16T17:18:41.170Z,75.90
2022-10-16T17:21:11.014Z,76.00
2022-10-16T17:23:38.688Z,76.10
2022-10-16T17:26:14.763Z,76.20
2022-10-16T17:28:42.757Z,76.60
2022-10-16T17:33:37.598Z,77.10
2022-10-16T17:36:04.995Z,77.50
2022-10-16T17:38:31.988Z,78.80
2022-10-16T17:40:59.447Z,78.50
2022-10-16T17:43:26.167Z,79.20
2022-10-16T17:45:52.875Z,79.80
2022-10-16T17:48:19.842Z,80.10
2022-10-16T17:50:46.545Z,80.40
2022-10-16T17:53:13.962Z,80.90
2022-10-16T17:55:41.773Z,81.40
2022-10-16T17:58:08.972Z,81.80
2022-10-16T18:00:36.035Z,81.90
2022-10-16T18:03:02.834Z,82.10
2022-10-16T18:05:29.560Z,82.00
2022-10-16T18:07:56.305Z,81.80
2022-10-16T18:10:25.889Z,82.00
2022-10-16T18:12:52.682Z,82.30
2022-10-16T18:15:22.495Z,82.50
2022-10-16T18:17:49.398Z,82.80
2022-10-16T18:20:16.238Z,82.90
2022-10-16T18:22:43.107Z,83.00
2022-10-16T18:25:10.297Z,83.30
2022-10-16T18:27:37.121Z,83.70
2022-10-16T18:30:04.255Z,84.10
2022-10-16T18:32:30.926Z,84.40
2022-10-16T18:34:57.658Z,84.80
2022-10-16T18:37:24.597Z,85.70
2022-10-16T18:39:51.677Z,85.30
2022-10-16T18:42:19.035Z,85.50
2022-10-16T18:44:47.912Z,85.90
2022-10-16T18:47:17.179Z,86.20
2022-10-16T18:49:44.332Z,86.70
2022-10-16T18:52:11.095Z,87.20
2022-10-16T18:54:37.988Z,87.90
2022-10-16T18:57:04.780Z,88.60
2022-10-16T18:59:31.647Z,89.30
2022-10-16T19:01:58.645Z,90.00
2022-10-16T19:04:25.679Z,90.20
2022-10-16T19:06:54.184Z,90.40
2022-10-16T19:09:23.262Z,90.80
2022-10-16T19:11:53.489Z,91.00
2022-10-16T19:14:21.274Z,91.20
2022-10-16T19:16:48.848Z,91.40
2022-10-16T19:19:18.578Z,91.70
2022-10-16T19:21:46.815Z,91.90
2022-10-16T19:24:15.469Z,92.10
2022-10-16T19:26:43.222Z,92.40
2022-10-16T19:29:10.964Z,92.50
2022-10-16T19:31:38.027Z,92.60
2022-10-16T19:34:07.401Z,92.70
2022-10-16T19:36:35.926Z,92.90
2022-10-16T19:39:14.224Z,93.00
2022-10-16T19:41:41.325Z,93.20
2022-10-16T19:44:09.470Z,93.30
2022-10-16T19:46:37.036Z,93.60
2022-10-16T19:49:10.656Z,93.80
2022-10-16T19:51:38.485Z,94.00
2022-10-16T19:54:07.852Z,94.20
2022-10-16T19:56:35.970Z,94.60
2022-10-16T19:59:04.701Z,94.80
2022-10-16T20:01:32.545Z,95.00
2022-10-16T20:03:59.856Z,95.20
2022-10-16T20:06:26.850Z,95.40
2022-10-16T20:08:54.885Z,95.70
2022-10-16T20:11:24.783Z,96.00
2022-10-16T20:13:51.648Z,96.20
2022-10-16T20:16:19.951Z,96.50
2022-10-16T20:18:51.022Z,96.70
2022-10-16T20:21:27.130Z,96.90
2022-10-16T20:23:54.428Z,97.20
2022-10-16T20:26:24.136Z,97.20
2022-10-16T20:28:50.942Z,97.50
2022-10-16T20:31:23.730Z,97.70
2022-10-16T20:33:52.068Z,97.80
2022-10-16T20:36:20.593Z,97.90
2022-10-16T20:38:47.692Z,98.10
2022-10-16T20:41:18.294Z,98.20
2022-10-16T20:43:47.185Z,98.40
2022-10-16T20:46:17.230Z,98.50
2022-10-16T20:48:44.751Z,98.60
2022-10-16T20:51:20.558Z,98.80
2022-10-16T20:53:49.071Z,98.90
2022-10-16T20:56:17.339Z,99.00
2022-10-16T20:58:45.405Z,99.20
2022-10-16T21:01:17.534Z,99.30
2022-10-16T21:03:49.380Z,99.50
2022-10-16T21:06:16.148Z,99.60
2022-10-16T21:08:43.436Z,99.70
2022-10-16T21:11:11.204Z,99.70
2022-10-16T21:13:38.689Z,99.80
2022-10-16T21:16:06.089Z,99.90
2022-10-16T21:18:33.147Z,99.90
2022-10-16T21:20:59.872Z,99.90
2022-10-16T21:23:27.105Z,99.90
2022-10-16T21:25:53.945Z,99.80
2022-10-16T21:28:20.723Z,99.80
2022-10-16T21:30:47.448Z,99.90
2022-10-16T21:33:14.191Z,99.90
2022-10-16T21:35:41.003Z,99.90
2022-10-16T21:38:07.858Z,99.90
2022-10-16T21:40:34.631Z,99.90
2022-10-16T21:43:04.767Z,99.90
2022-10-16T21:45:33.836Z,99.90
2022-10-16T21:48:00.723Z,99.90
2022-10-16T21:50:27.396Z,99.90
2022-10-16T21:52:54.062Z,99.90
2022-10-16T21:55:20.876Z,99.90
2022-10-16T21:57:47.592Z,99.90
2022-10-16T22:00:15.035Z,99.90
2022-10-16T22:02:41.818Z,99.90
2022-10-16T22:05:08.784Z,99.90
2022-10-16T22:07:35.717Z,99.90
2022-10-16T22:10:02.475Z,99.90
2022-10-16T22:12:29.808Z,99.90
2022-10-16T22:14:56.593Z,99.90
2022-10-16T22:17:23.419Z,99.90
2022-10-16T22:19:50.322Z,99.90
2022-10-16T22:22:17.130Z,99.90
2022-10-16T22:24:44.065Z,99.90
2022-10-16T22:27:11.023Z,99.90
2022-10-16T22:29:37.987Z,99.90
2022-10-16T22:32:04.987Z,99.90
2022-10-16T22:34:31.864Z,99.90
2022-10-16T22:36:58.632Z,99.90
2022-10-16T22:39:25.485Z,99.90
2022-10-16T22:41:52.216Z,99.90
2022-10-16T22:44:19.062Z,99.90
2022-10-16T22:46:45.820Z,99.90
2022-10-16T22:49:12.613Z,99.90
2022-10-16T22:51:39.553Z,99.90
2022-10-16T22:54:06.289Z,99.90
2022-10-16T22:56:33.032Z,99.90
2022-10-16T22:58:59.768Z,99.90
2022-10-16T23:01:33.527Z,99.90
2022-10-16T23:04:01.578Z,99.90
2022-10-16T23:06:28.881Z,99.90
2022-10-16T23:08:58.036Z,99.90
2022-10-16T23:11:25.793Z,99.90
2022-10-16T23:13:52.812Z,99.90
2022-10-16T23:16:21.354Z,99.90
2022-10-16T23:18:48.991Z,99.90
2022-10-16T23:21:21.971Z,99.90
2022-10-16T23:23:49.568Z,99.90
2022-10-16T23:26:19.996Z,99.90
2022-10-16T23:28:47.418Z,99.90
2022-10-16T23:31:15.624Z,99.90
2022-10-16T23:33:42.875Z,99.90
2022-10-16T23:36:12.646Z,99.90
2022-10-16T23:38:39.922Z,99.90
2022-10-16T23:41:07.109Z,99.90
2022-10-16T23:43:33.932Z,99.90
2022-10-16T23:46:01.436Z,99.90
2022-10-16T23:48:28.349Z,99.90
2022-10-16T23:50:55.201Z,99.90
2022-10-16T23:53:22.670Z,99.90
2022-10-16T23:55:49.595Z,99.90
2022-10-16T23:58:17.102Z,99.90
